RYR4899 LIBD-LDDU
Flight info
| Callsign | RYR4899 |
|---|---|
| Flight time | N/A |
| Altitude | 16000 |
| Route | BANAV DCT AIOSA |
| Aircraft | B38M/M-SDE1FGHILORVWXY/HB1 |
Departure
| Time | N/A |
|---|---|
| Airport | Bari Karol Wojtyła International Airport (LIBD) |
Arrival
| Time | 2026-04-29 16:06 |
|---|---|
| Airport | Dubrovnik Ruđer Bošković Airport (LDDU) |
| Time | Latitude | Longitude | Altitude | Speed | Heading |
|---|---|---|---|---|---|
| 2026-04-29 15:54 | 42.41538 | 17.51298 | 10257 ft | 302 kts | 20° |
| 2026-04-29 15:54 | 42.43445 | 17.52343 | 10118 ft | 294 kts | 20° |
| 2026-04-29 15:55 | 42.45313 | 17.53367 | 9907 ft | 289 kts | 20° |
| 2026-04-29 15:55 | 42.47173 | 17.54386 | 9562 ft | 288 kts | 20° |
| 2026-04-29 15:55 | 42.49022 | 17.55402 | 9239 ft | 286 kts | 20° |
| 2026-04-29 15:55 | 42.50871 | 17.56418 | 8934 ft | 285 kts | 20° |
| 2026-04-29 15:56 | 42.52701 | 17.57430 | 8618 ft | 284 kts | 22° |
| 2026-04-29 15:56 | 42.54352 | 17.58805 | 8260 ft | 286 kts | 46° |
| 2026-04-29 15:56 | 42.55306 | 17.61114 | 7976 ft | 283 kts | 73° |
| 2026-04-29 15:56 | 42.55892 | 17.63657 | 7723 ft | 282 kts | 70° |
| 2026-04-29 15:57 | 42.56615 | 17.66134 | 7452 ft | 283 kts | 68° |
| 2026-04-29 15:57 | 42.57344 | 17.68614 | 7160 ft | 282 kts | 69° |
| 2026-04-29 15:57 | 42.58064 | 17.71090 | 6867 ft | 281 kts | 69° |
| 2026-04-29 15:57 | 42.58776 | 17.73553 | 6576 ft | 278 kts | 69° |
| 2026-04-29 15:58 | 42.59471 | 17.75967 | 6268 ft | 271 kts | 69° |
| 2026-04-29 15:58 | 42.60147 | 17.78322 | 5975 ft | 264 kts | 69° |
| 2026-04-29 15:58 | 42.60803 | 17.80614 | 5696 ft | 257 kts | 69° |
| 2026-04-29 15:58 | 42.61441 | 17.82842 | 5431 ft | 253 kts | 69° |
| 2026-04-29 15:59 | 42.62072 | 17.85056 | 5183 ft | 251 kts | 70° |
| 2026-04-29 15:59 | 42.62682 | 17.87203 | 5040 ft | 244 kts | 70° |
| 2026-04-29 15:59 | 42.63302 | 17.89380 | 4924 ft | 243 kts | 70° |
| 2026-04-29 15:59 | 42.63902 | 17.91487 | 4810 ft | 243 kts | 70° |
| 2026-04-29 16:00 | 42.64511 | 17.93622 | 4675 ft | 242 kts | 70° |
| 2026-04-29 16:00 | 42.65115 | 17.95739 | 4588 ft | 238 kts | 70° |
| 2026-04-29 16:00 | 42.65711 | 17.97834 | 4437 ft | 237 kts | 70° |
| 2026-04-29 16:00 | 42.66145 | 17.99964 | 4262 ft | 231 kts | 90° |
| 2026-04-29 16:01 | 42.65883 | 18.02049 | 4097 ft | 221 kts | 114° |
| 2026-04-29 16:01 | 42.65222 | 18.03909 | 3882 ft | 217 kts | 121° |
| 2026-04-29 16:01 | 42.64509 | 18.05667 | 3650 ft | 208 kts | 121° |
| 2026-04-29 16:01 | 42.63835 | 18.07353 | 3382 ft | 203 kts | 121° |
| 2026-04-29 16:02 | 42.63175 | 18.09022 | 3111 ft | 198 kts | 120° |
| 2026-04-29 16:02 | 42.62539 | 18.10634 | 2856 ft | 187 kts | 120° |
| 2026-04-29 16:02 | 42.61956 | 18.12113 | 2644 ft | 165 kts | 120° |
| 2026-04-29 16:02 | 42.61449 | 18.13398 | 2428 ft | 145 kts | 121° |
| 2026-04-29 16:03 | 42.60975 | 18.14598 | 2236 ft | 144 kts | 121° |
| 2026-04-29 16:03 | 42.60503 | 18.15792 | 2046 ft | 143 kts | 120° |
| 2026-04-29 16:03 | 42.60034 | 18.16978 | 1871 ft | 143 kts | 120° |
| 2026-04-29 16:03 | 42.59566 | 18.18169 | 1657 ft | 144 kts | 121° |
| 2026-04-29 16:04 | 42.59091 | 18.19369 | 1473 ft | 144 kts | 122° |
| 2026-04-29 16:04 | 42.58618 | 18.20561 | 1281 ft | 144 kts | 121° |
| 2026-04-29 16:04 | 42.58141 | 18.21763 | 1082 ft | 144 kts | 122° |
| 2026-04-29 16:04 | 42.57671 | 18.22947 | 938 ft | 141 kts | 122° |
| 2026-04-29 16:05 | 42.57205 | 18.24113 | 691 ft | 140 kts | 118° |
| 2026-04-29 16:05 | 42.56751 | 18.25271 | 538 ft | 136 kts | 117° |
| 2026-04-29 16:05 | 42.56367 | 18.26245 | 517 ft | 88 kts | 118° |
| 2026-04-29 16:05 | 42.56150 | 18.26793 | 512 ft | 60 kts | 118° |
| 2026-04-29 16:06 | 42.56008 | 18.27149 | 508 ft | 29 kts | 118° |
| 2026-04-29 16:06 | 42.55880 | 18.27327 | 504 ft | 18 kts | 166° |
| 2026-04-29 16:06 | 42.55779 | 18.27284 | 505 ft | 16 kts | 258° |
| 2026-04-29 16:06 | 42.55820 | 18.27149 | 506 ft | 17 kts | 298° |
| 2026-04-29 16:07 | 42.55878 | 18.27005 | 508 ft | 18 kts | 298° |
| 2026-04-29 16:07 | 42.55942 | 18.26843 | 510 ft | 20 kts | 298° |
| 2026-04-29 16:07 | 42.56011 | 18.26668 | 511 ft | 22 kts | 298° |
| 2026-04-29 16:07 | 42.56084 | 18.26482 | 513 ft | 22 kts | 298° |
| 2026-04-29 16:08 | 42.56157 | 18.26306 | 515 ft | 22 kts | 299° |
| 2026-04-29 16:08 | 42.56207 | 18.26175 | 516 ft | 14 kts | 297° |
| 2026-04-29 16:08 | 42.56186 | 18.26118 | 516 ft | 6 kts | 208° |
| 2026-04-29 16:08 | 42.56170 | 18.26106 | 516 ft | 0 kts | 208° |